Time;durP1;ratioP1;P1;durP2;ratioP2;P2;SDS_P1;SDS_P2;PMS_P1;PMS_P2;Temp;Humidity;BMP_temperature;BMP_pressure;BME280_temperature;BME280_humidity;BME280_pressure;Samples;Min_cycle;Max_cycle;Signal;HPM_P1;HPM_P2
2023/09/17 00:00:38;;;;;;;23.05;9.65;;;;;;;9.52;88.51;100771.44;5079682;28;20466;-56
2023/09/17 00:03:04;;;;;;;18.55;9.90;;;;;;;9.51;89.06;100777.50;5067502;28;20044;-51
2023/09/17 00:05:34;;;;;;;20.92;9.10;;;;;;;9.34;89.41;100752.63;5048865;28;20542;-55
2023/09/17 00:08:00;;;;;;;18.00;9.57;;;;;;;9.18;89.25;100724.28;5063672;28;20482;-56
2023/09/17 00:10:26;;;;;;;18.83;8.63;;;;;;;9.46;89.38;100774.13;5072643;28;20119;-53
2023/09/17 00:12:54;;;;;;;17.27;9.00;;;;;;;9.47;89.68;100775.84;5057537;28;20098;-53
2023/09/17 00:15:22;;;;;;;20.40;9.45;;;;;;;9.49;89.16;100774.06;5049509;28;20468;-55
2023/09/17 00:17:49;;;;;;;20.55;9.95;;;;;;;9.49;88.96;100776.66;5072685;28;20537;-54
2023/09/17 00:20:16;;;;;;;19.33;8.38;;;;;;;9.49;88.91;100779.25;5075306;28;20687;-52
2023/09/17 00:22:42;;;;;;;22.65;9.88;;;;;;;9.46;89.30;100774.97;5094525;28;20135;-54
2023/09/17 00:25:08;;;;;;;21.10;9.70;;;;;;;9.45;89.08;100778.44;5071607;28;20039;-53
2023/09/17 00:27:34;;;;;;;16.50;9.23;;;;;;;9.44;89.11;100783.66;5059211;28;20431;-53
2023/09/17 00:30:01;;;;;;;17.60;9.13;;;;;;;9.44;89.26;100784.50;5080121;28;20142;-49
2023/09/17 00:32:33;;;;;;;20.60;10.27;;;;;;;9.42;89.30;100786.25;5065967;28;20045;-54
2023/09/17 00:34:59;;;;;;;19.58;9.88;;;;;;;9.43;89.35;100784.50;5080741;28;20109;-52
2023/09/17 00:37:25;;;;;;;18.38;9.60;;;;;;;9.43;89.09;100781.91;5081050;28;20397;-52
2023/09/17 00:39:51;;;;;;;20.95;10.02;;;;;;;9.21;89.50;100742.41;5070210;28;20044;-49
2023/09/17 00:42:17;;;;;;;15.63;8.75;;;;;;;9.40;89.42;100781.97;5054179;28;20076;-50
2023/09/17 00:44:43;;;;;;;16.17;8.63;;;;;;;9.40;89.73;100776.78;5075954;28;20079;-51
2023/09/17 00:47:09;;;;;;;22.75;9.45;;;;;;;9.34;89.63;100769.91;5074916;28;20131;-54
2023/09/17 00:49:35;;;;;;;20.30;9.75;;;;;;;9.36;89.94;100775.97;5062788;28;20534;-50
2023/09/17 00:52:03;;;;;;;17.55;8.60;;;;;;;9.35;89.31;100780.28;5057932;28;20058;-53
2023/09/17 00:54:30;;;;;;;18.15;9.48;;;;;;;9.34;89.41;100775.97;5090752;28;20098;-51
2023/09/17 00:56:56;;;;;;;16.77;9.05;;;;;;;9.33;89.37;100771.66;5062809;28;20050;-52
2023/09/17 00:59:23;;;;;;;15.27;8.70;;;;;;;9.07;89.29;100726.13;5062526;28;20043;-54
2023/09/17 01:01:50;;;;;;;16.55;8.73;;;;;;;9.15;89.25;100737.28;5059523;28;20032;-54
2023/09/17 01:04:16;;;;;;;15.63;7.97;;;;;;;9.31;89.40;100769.97;5072711;28;20111;-53
2023/09/17 01:06:43;;;;;;;16.98;8.32;;;;;;;9.30;89.47;100776.03;5064905;28;20052;-53
2023/09/17 01:09:09;;;;;;;16.13;8.07;;;;;;;9.27;89.76;100773.47;5079348;28;20050;-53
2023/09/17 01:11:36;;;;;;;18.60;8.25;;;;;;;9.27;89.87;100773.47;5057448;28;20130;-54
2023/09/17 01:14:15;;;;;;;16.83;8.38;;;;;;;9.01;89.61;100721.88;5071249;28;20036;-55
2023/09/17 01:16:45;;;;;;;17.77;8.05;;;;;;;9.26;89.79;100775.19;5060223;28;20606;-54
2023/09/17 01:19:29;;;;;;;19.90;7.53;;;;;;;9.24;89.62;100773.50;5075668;28;20072;-51
2023/09/17 01:22:03;;;;;;;15.75;7.30;;;;;;;9.20;89.88;100764.03;5069092;28;20040;-55
2023/09/17 01:25:00;;;;;;;16.33;8.05;;;;;;;9.20;89.88;100769.22;5075957;28;20504;-52
2023/09/17 01:27:27;;;;;;;14.82;7.35;;;;;;;9.17;89.51;100770.09;5049198;28;20107;-53
2023/09/17 01:29:53;;;;;;;15.10;7.88;;;;;;;9.16;89.54;100778.75;5080505;28;20438;-54
2023/09/17 01:32:20;;;;;;;17.35;8.35;;;;;;;9.16;90.01;100778.75;5076203;28;20044;-49
2023/09/17 01:34:52;;;;;;;16.80;7.82;;;;;;;9.14;90.08;100766.69;5071922;28;20043;-53
2023/09/17 01:37:30;;;;;;;17.10;7.75;;;;;;;9.13;89.98;100776.22;5074178;28;20054;-51
2023/09/17 01:40:03;;;;;;;16.33;8.02;;;;;;;8.97;90.08;100748.72;5053165;28;20047;-51
2023/09/17 01:42:30;;;;;;;15.63;7.85;;;;;;;9.13;90.16;100772.75;5065888;28;20598;-48
2023/09/17 01:44:57;;;;;;;12.40;7.05;;;;;;;9.12;89.87;100768.44;5068908;28;20036;-53
2023/09/17 01:47:25;;;;;;;14.27;7.55;;;;;;;9.09;90.56;100763.31;5079029;28;20032;-51
2023/09/17 01:49:51;;;;;;;13.27;7.22;;;;;;;9.10;90.08;100771.06;5072417;28;20052;-49
2023/09/17 01:52:22;;;;;;;13.27;7.85;;;;;;;9.10;90.36;100773.66;5075357;28;20066;-49
2023/09/17 01:54:49;;;;;;;13.68;7.55;;;;;;;9.10;89.84;100765.88;5073878;28;20048;-50
2023/09/17 01:57:15;;;;;;;14.82;7.47;;;;;;;9.09;89.69;100763.31;5079550;28;20430;-50
2023/09/17 01:59:41;;;;;;;14.20;7.78;;;;;;;9.06;89.82;100774.56;5077603;28;20136;-51
2023/09/17 02:02:07;;;;;;;13.45;7.22;;;;;;;9.04;89.86;100771.13;5067083;28;20543;-54
2023/09/17 02:04:33;;;;;;;20.20;7.60;;;;;;;9.02;90.41;100777.19;5079836;28;20050;-53
2023/09/17 02:06:59;;;;;;;14.25;7.50;;;;;;;9.01;89.96;100770.28;5058152;28;20092;-51
2023/09/17 02:09:25;;;;;;;18.02;7.38;;;;;;;8.99;90.32;100770.31;5076308;28;20463;-54
2023/09/17 02:11:52;;;;;;;15.85;7.65;;;;;;;9.01;90.08;100773.75;5062238;28;20065;-50
2023/09/17 02:14:18;;;;;;;17.85;7.47;;;;;;;9.00;89.84;100769.47;5068050;28;20556;-52
2023/09/17 02:16:44;;;;;;;16.48;7.40;;;;;;;8.98;90.29;100778.13;5076938;28;20040;-53
2023/09/17 02:19:11;;;;;;;15.55;7.10;;;;;;;8.95;90.45;100780.75;5063759;28;20042;-52
2023/09/17 02:21:37;;;;;;;13.43;8.13;;;;;;;8.91;89.99;100783.38;5076612;28;20118;-51
2023/09/17 02:24:03;;;;;;;17.77;8.00;;;;;;;8.84;89.95;100765.31;5081098;28;20127;-53
2023/09/17 02:26:29;;;;;;;16.60;7.55;;;;;;;8.93;90.41;100793.72;5063616;28;20083;-52
2023/09/17 02:28:56;;;;;;;16.45;7.20;;;;;;;8.93;90.23;100785.94;5058946;28;20122;-52
2023/09/17 02:31:21;;;;;;;13.90;7.28;;;;;;;8.92;90.09;100779.03;5065954;28;20076;-53
2023/09/17 02:33:48;;;;;;;14.30;7.68;;;;;;;8.92;90.26;100785.09;5069815;28;20079;-54
2023/09/17 02:36:14;;;;;;;13.90;7.57;;;;;;;8.93;90.07;100791.13;5053070;28;20086;-50
2023/09/17 02:38:43;;;;;;;13.27;7.00;;;;;;;8.90;90.00;100783.38;5076166;28;20423;-50
2023/09/17 02:41:09;;;;;;;18.20;7.65;;;;;;;8.89;90.26;100781.66;5074769;28;20365;-53
2023/09/17 02:43:36;;;;;;;16.40;6.97;;;;;;;8.90;90.63;100785.97;5041225;28;20040;-49
2023/09/17 02:46:03;;;;;;;12.27;6.35;;;;;;;8.87;89.80;100781.69;5073410;28;20055;-53
2023/09/17 02:48:32;;;;;;;11.90;6.60;;;;;;;8.89;90.10;100790.31;5079137;28;20044;-51
2023/09/17 02:50:59;;;;;;;11.35;6.28;;;;;;;8.88;90.07;100788.59;5071799;28;20071;-51
2023/09/17 02:53:26;;;;;;;15.48;7.45;;;;;;;8.87;90.19;100786.00;5072666;28;20349;-55
2023/09/17 02:55:52;;;;;;;14.55;7.80;;;;;;;8.88;90.42;100790.31;5074892;28;20539;-53
2023/09/17 02:58:18;;;;;;;15.50;7.50;;;;;;;8.88;90.19;100795.50;5074251;28;20041;-50
2023/09/17 03:00:44;;;;;;;11.90;7.15;;;;;;;8.86;90.13;100792.06;5078677;28;20044;-52
2023/09/17 03:03:11;;;;;;;11.48;7.97;;;;;;;8.84;90.45;100786.91;5077930;28;20055;-54
2023/09/17 03:05:39;;;;;;;12.68;7.00;;;;;;;8.83;90.54;100800.75;5082276;28;20727;-58
2023/09/17 03:08:09;;;;;;;;;;;;;;;8.83;90.48;100792.97;5078399;28;20417;-53
2023/09/17 03:10:41;;;;;;;20.17;7.65;;;;;;;8.80;90.25;100797.31;5079301;28;19931;-51
2023/09/17 03:13:12;;;;;;;13.70;6.80;;;;;;;8.69;90.62;100792.22;5056462;28;20048;-53
2023/09/17 03:15:39;;;;;;;14.52;7.05;;;;;;;8.62;90.52;100774.16;5072345;28;20493;-52
2023/09/17 03:18:06;;;;;;;16.48;7.82;;;;;;;8.82;90.29;100804.19;5075664;28;20036;-53
2023/09/17 03:20:33;;;;;;;15.35;7.97;;;;;;;8.84;90.40;100807.66;5070293;28;20118;-52
2023/09/17 03:23:04;;;;;;;14.18;7.68;;;;;;;8.85;90.35;100806.75;5063746;28;20143;-52
2023/09/17 03:25:33;;;;;;;15.02;7.57;;;;;;;8.88;90.56;100809.34;5078621;28;20040;-48
2023/09/17 03:27:59;;;;;;;15.23;7.30;;;;;;;8.76;90.33;100788.69;5076521;28;20400;-53
2023/09/17 03:30:28;;;;;;;13.93;7.43;;;;;;;8.92;90.22;100810.16;5064410;28;20253;-53
2023/09/17 03:32:55;;;;;;;16.60;7.38;;;;;;;8.92;90.25;100805.84;5055073;28;20221;-50
2023/09/17 03:35:23;;;;;;;14.82;7.40;;;;;;;8.98;90.10;100801.47;5053314;28;20047;-52
2023/09/17 03:37:50;;;;;;;15.80;7.03;;;;;;;8.98;89.78;100810.09;5077443;28;20040;-51
2023/09/17 03:40:16;;;;;;;14.85;7.00;;;;;;;9.01;89.85;100809.19;5064571;28;20851;-53
2023/09/17 03:42:44;;;;;;;18.58;8.25;;;;;;;9.03;89.51;100803.13;5055296;28;20055;-53
2023/09/17 03:45:13;;;;;;;18.25;7.38;;;;;;;9.06;90.18;100804.81;5058990;28;20037;-48
2023/09/17 03:47:40;;;;;;;19.48;7.57;;;;;;;9.09;89.85;100800.47;5076752;28;20053;-56
2023/09/17 03:50:08;;;;;;;12.93;7.55;;;;;;;8.94;89.74;100761.75;5076612;28;20048;-56
2023/09/17 03:52:39;;;;;;;15.75;7.15;;;;;;;9.15;89.63;100805.63;5067039;28;20047;-53
2023/09/17 03:55:08;;;;;;;16.55;7.13;;;;;;;9.00;89.44;100774.66;5065480;28;20072;-51
2023/09/17 03:57:35;;;;;;;15.57;7.55;;;;;;;9.20;89.89;100803.81;5072519;28;20209;-53
2023/09/17 04:00:14;;;;;;;15.85;7.97;;;;;;;9.23;89.32;100805.50;5060748;28;20047;-55
2023/09/17 04:02:42;;;;;;;17.83;7.32;;;;;;;9.27;89.65;100804.59;5052785;28;20419;-53
2023/09/17 04:05:12;;;;;;;14.38;7.13;;;;;;;9.31;89.38;100806.31;5078095;28;20500;-53
2023/09/17 04:07:40;;;;;;;19.60;7.68;;;;;;;9.34;89.37;100803.66;5078351;28;20040;-50
2023/09/17 04:10:08;;;;;;;14.10;7.03;;;;;;;9.42;89.24;100811.38;5079572;28;20075;-51
2023/09/17 04:12:38;;;;;;;13.43;7.28;;;;;;;9.45;88.74;100804.41;5042313;28;20037;-50
2023/09/17 04:15:19;;;;;;;15.68;8.10;;;;;;;9.52;88.71;100816.44;5058756;28;20032;-51
2023/09/17 04:17:48;;;;;;;17.73;8.70;;;;;;;9.57;89.11;100806.84;5080401;28;20489;-53
2023/09/17 04:20:21;;;;;;;19.67;8.23;;;;;;;9.29;88.17;100750.94;5080628;28;20151;-53
2023/09/17 04:22:50;;;;;;;16.58;9.10;;;;;;;9.50;88.69;100787.03;5047621;28;20052;-51
2023/09/17 04:25:19;;;;;;;21.25;9.90;;;;;;;9.73;88.59;100810.94;5073532;28;20044;-52
2023/09/17 04:27:48;;;;;;;20.02;8.15;;;;;;;9.78;87.91;100810.91;5078322;28;20131;-50
2023/09/17 04:30:17;;;;;;;15.15;8.13;;;;;;;9.81;88.30;100803.06;5062675;28;20488;-54
2023/09/17 04:32:46;;;;;;;15.35;7.70;;;;;;;9.90;88.41;100807.28;5077563;28;20062;-53
2023/09/17 04:35:15;;;;;;;17.05;9.48;;;;;;;9.94;88.46;100811.56;5060058;28;20043;-53
2023/09/17 04:37:44;;;;;;;15.82;8.00;;;;;;;10.03;87.91;100811.44;5054496;28;20064;-51
2023/09/17 04:40:11;;;;;;;17.38;8.25;;;;;;;10.13;87.63;100811.28;5059778;28;20033;-53
2023/09/17 04:42:42;;;;;;;20.27;8.30;;;;;;;10.12;87.77;100799.16;5079090;28;20052;-51
2023/09/17 04:45:10;;;;;;;17.35;8.88;;;;;;;10.28;87.83;100807.63;5079874;28;20469;-51
2023/09/17 04:47:37;;;;;;;19.88;8.93;;;;;;;10.36;87.50;100810.97;5058103;28;20213;-54
2023/09/17 04:50:07;;;;;;;23.75;10.05;;;;;;;10.42;87.41;100803.06;5076442;28;20428;-49
2023/09/17 04:52:37;;;;;;;22.65;9.48;;;;;;;10.52;86.98;100809.00;5058126;28;20032;-52
2023/09/17 04:55:05;;;;;;;22.35;9.02;;;;;;;10.59;86.72;100808.84;5076388;28;20574;-55
2023/09/17 04:57:33;;;;;;;21.88;9.50;;;;;;;10.55;86.54;100780.34;5060000;28;20416;-54
2023/09/17 05:00:10;;;;;;;21.58;9.52;;;;;;;10.83;85.96;100806.75;5055389;28;20047;-53
2023/09/17 05:02:40;;;;;;;18.48;9.45;;;;;;;10.98;85.84;100812.53;5061158;28;20052;-54
2023/09/17 05:05:09;;;;;;;15.75;8.98;;;;;;;11.11;85.18;100802.75;5057793;28;20044;-54
2023/09/17 05:07:38;;;;;;;17.57;9.57;;;;;;;11.24;84.67;100809.44;5073126;28;20428;-54
2023/09/17 05:10:06;;;;;;;24.13;9.40;;;;;;;11.34;84.73;100805.78;5045939;28;20047;-53
2023/09/17 05:12:32;;;;;;;21.23;9.30;;;;;;;11.51;83.92;100807.19;5078091;28;20040;-53
2023/09/17 05:14:58;;;;;;;18.95;9.20;;;;;;;11.61;83.69;100806.97;5073278;28;20115;-55
2023/09/17 05:17:24;;;;;;;21.58;9.57;;;;;;;11.75;83.26;100812.78;5076613;28;20079;-52
2023/09/17 05:19:51;;;;;;;18.40;9.15;;;;;;;11.89;82.72;100813.34;5075912;28;20119;-53
2023/09/17 05:22:17;;;;;;;19.55;9.70;;;;;;;12.00;82.11;100815.72;5073217;28;20044;-55
2023/09/17 05:24:44;;;;;;;20.15;8.95;;;;;;;12.14;81.62;100816.25;5077949;28;20123;-55
2023/09/17 05:27:09;;;;;;;20.88;8.77;;;;;;;12.32;80.45;100810.63;5061401;28;20123;-56
2023/09/17 05:29:35;;;;;;;15.82;9.00;;;;;;;12.47;79.41;100812.00;5076057;28;20040;-51
2023/09/17 05:32:02;;;;;;;21.48;9.65;;;;;;;12.63;79.03;100817.72;5081844;28;20051;-53
2023/09/17 05:34:28;;;;;;;15.85;9.02;;;;;;;12.79;78.50;100819.03;5050178;28;20535;-52
2023/09/17 05:36:55;;;;;;;17.42;8.63;;;;;;;12.99;77.66;100814.16;5067097;28;20610;-53
2023/09/17 05:39:21;;;;;;;18.55;9.35;;;;;;;13.21;76.68;100813.63;5067002;28;20483;-52
2023/09/17 05:41:47;;;;;;;17.90;8.35;;;;;;;13.40;75.99;100807.84;5073184;28;20067;-55
2023/09/17 05:44:13;;;;;;;15.65;8.70;;;;;;;13.56;74.91;100779.53;5054180;28;20424;-54
2023/09/17 05:46:39;;;;;;;11.60;8.10;;;;;;;14.23;73.18;100804.53;5069971;28;20045;-54
2023/09/17 05:49:05;;;;;;;17.65;8.07;;;;;;;14.88;70.94;100800.66;5069307;28;20029;-54
2023/09/17 05:51:31;;;;;;;17.38;8.05;;;;;;;15.59;68.70;100806.00;5067611;28;20045;-57
2023/09/17 05:53:57;;;;;;;14.90;7.60;;;;;;;16.43;66.07;100803.59;5076612;28;20475;-54
2023/09/17 05:56:23;;;;;;;13.38;6.55;;;;;;;17.12;62.92;100785.81;5038399;28;20048;-54
2023/09/17 05:58:49;;;;;;;10.88;6.60;;;;;;;17.93;61.08;100799.66;5077915;28;20592;-56
2023/09/17 06:01:15;;;;;;;10.57;5.40;;;;;;;18.46;58.54;100798.88;5061816;28;20048;-55
2023/09/17 06:03:41;;;;;;;14.55;6.30;;;;;;;19.15;56.53;100798.91;5076582;28;20112;-59
2023/09/17 06:06:07;;;;;;;10.07;6.03;;;;;;;20.02;54.58;100785.41;5078505;28;20129;-56
2023/09/17 06:08:34;;;;;;;13.02;6.22;;;;;;;20.96;52.08;100779.94;5072739;28;20048;-56
2023/09/17 06:10:59;;;;;;;10.65;6.00;;;;;;;21.60;49.48;100785.78;5071441;28;20386;-57
2023/09/17 06:13:25;;;;;;;7.72;5.80;;;;;;;22.25;47.49;100797.47;5089132;28;20045;-54
2023/09/17 06:15:51;;;;;;;12.35;6.18;;;;;;;22.89;45.51;100806.50;5058705;28;20085;-56
2023/09/17 06:18:18;;;;;;;10.88;5.40;;;;;;;22.75;44.06;100805.66;5062660;28;20040;-54
2023/09/17 06:20:45;;;;;;;10.45;5.70;;;;;;;23.30;42.90;100803.66;5064863;28;20047;-55
2023/09/17 06:23:11;;;;;;;11.30;6.60;;;;;;;23.37;41.55;100783.72;5075729;28;20043;-54
2023/09/17 06:25:37;;;;;;;14.80;6.55;;;;;;;24.03;40.84;100786.06;5075960;28;20048;-59
2023/09/17 06:28:04;;;;;;;10.65;6.25;;;;;;;25.15;39.50;100800.72;5058594;28;20045;-57
2023/09/17 06:30:30;;;;;;;14.60;6.80;;;;;;;25.72;38.23;100782.00;5064398;28;20068;-56
2023/09/17 06:32:56;;;;;;;11.98;6.63;;;;;;;26.50;37.02;100793.34;5067821;28;20071;-56
2023/09/17 06:35:22;;;;;;;8.82;6.78;;;;;;;27.22;36.00;100790.78;5067877;28;20041;-56
2023/09/17 06:37:49;;;;;;;8.25;6.55;;;;;;;27.75;34.57;100793.31;5036690;28;20044;-58
2023/09/17 06:40:15;;;;;;;13.77;6.65;;;;;;;27.07;34.54;100789.44;5077976;28;20665;-56
2023/09/17 06:42:42;;;;;;;15.25;7.55;;;;;;;27.42;34.63;100790.91;5076233;28;20032;-56
2023/09/17 06:45:09;;;;;;;9.35;6.40;;;;;;;27.91;33.32;100795.47;5072052;28;20480;-58
2023/09/17 06:47:35;;;;;;;12.35;6.13;;;;;;;28.12;32.19;100793.56;5070346;28;20079;-56
2023/09/17 06:50:00;;;;;;;7.47;5.78;;;;;;;27.73;32.06;100790.78;5057062;28;20064;-61
2023/09/17 06:52:27;;;;;;;9.52;6.43;;;;;;;28.08;31.82;100787.63;5040690;28;20122;-54
2023/09/17 06:54:53;;;;;;;9.02;5.13;;;;;;;28.78;30.66;100785.75;5060590;28;20047;-51
2023/09/17 06:57:19;;;;;;;9.43;5.85;;;;;;;28.83;30.16;100768.28;5078191;28;20044;-49
2023/09/17 06:59:46;;;;;;;6.85;5.50;;;;;;;29.45;29.74;100781.09;5075702;28;20035;-55
2023/09/17 07:02:12;;;;;;;9.65;6.25;;;;;;;29.81;29.42;100779.38;5051387;28;20395;-59
2023/09/17 07:04:38;;;;;;;8.27;5.75;;;;;;;30.12;28.90;100771.88;5066774;28;20519;-55
2023/09/17 07:07:04;;;;;;;5.80;4.30;;;;;;;29.00;29.06;100777.38;5067141;28;20127;-55
2023/09/17 07:09:31;;;;;;;5.57;3.92;;;;;;;28.80;29.01;100762.34;5071395;28;20047;-57
2023/09/17 07:11:57;;;;;;;6.65;4.65;;;;;;;28.54;29.38;100770.94;5049890;28;20044;-56
2023/09/17 07:14:23;;;;;;;8.80;4.45;;;;;;;28.31;29.37;100766.03;5070831;28;20043;-55
2023/09/17 07:16:49;;;;;;;7.45;5.07;;;;;;;27.71;30.20;100767.84;5051139;28;20053;-53
2023/09/17 07:19:15;;;;;;;7.13;4.82;;;;;;;28.09;30.15;100761.75;5068250;28;20516;-53
2023/09/17 07:21:42;;;;;;;8.20;6.03;;;;;;;28.05;30.08;100738.94;5059983;28;20123;-55
2023/09/17 07:24:09;;;;;;;8.55;5.97;;;;;;;27.45;31.02;100748.72;5063997;28;20041;-60
2023/09/17 07:26:35;;;;;;;10.63;6.10;;;;;;;27.54;31.17;100747.94;5069373;28;20046;-56
2023/09/17 07:29:03;;;;;;;10.40;5.90;;;;;;;28.05;30.74;100728.25;5075432;28;20415;-57
2023/09/17 07:31:30;;;;;;;6.97;5.28;;;;;;;27.82;30.57;100749.03;5068421;28;20117;-56
2023/09/17 07:33:56;;;;;;;7.68;3.35;;;;;;;27.53;30.18;100732.91;5045851;28;20126;-55
2023/09/17 07:36:24;;;;;;;8.07;3.92;;;;;;;26.44;31.26;100745.00;5065296;28;20135;-56
2023/09/17 07:38:51;;;;;;;7.35;4.32;;;;;;;26.28;31.92;100739.25;5059169;28;20428;-58
2023/09/17 07:41:17;;;;;;;5.78;4.18;;;;;;;26.35;31.63;100729.78;5075795;28;20508;-54
2023/09/17 07:43:43;;;;;;;5.13;4.10;;;;;;;26.20;32.10;100728.34;5050676;28;20045;-54
2023/09/17 07:46:13;;;;;;;9.05;4.88;;;;;;;26.82;31.61;100734.59;5053532;28;20090;-55
2023/09/17 07:48:40;;;;;;;7.15;5.32;;;;;;;26.98;31.29;100729.69;5073577;28;20075;-55
2023/09/17 07:51:05;;;;;;;7.38;5.13;;;;;;;27.84;30.34;100731.03;5066449;28;20036;-50
2023/09/17 07:53:32;;;;;;;9.35;6.32;;;;;;;26.89;31.21;100726.97;5071699;28;20121;-56
2023/09/17 07:55:59;;;;;;;9.05;5.80;;;;;;;26.80;31.57;100711.69;5060517;28;20431;-56
2023/09/17 07:58:25;;;;;;;11.27;5.88;;;;;;;27.60;30.83;100731.38;5077318;28;20151;-54
2023/09/17 08:00:52;;;;;;;8.32;5.90;;;;;;;28.61;29.38;100715.03;5081264;28;20135;-57
2023/09/17 08:03:18;;;;;;;7.60;5.07;;;;;;;29.32;28.17;100710.91;5065230;28;20504;-55
2023/09/17 08:05:46;;;;;;;8.77;6.18;;;;;;;28.98;28.61;100701.72;5068978;28;20071;-56
2023/09/17 08:08:13;;;;;;;;;;;;;;;28.53;28.91;100710.38;5072995;28;20056;-58
2023/09/17 08:10:39;;;;;;;5.45;3.97;;;;;;;27.38;30.10;100703.00;5075779;28;19916;-54
2023/09/17 08:13:06;;;;;;;8.18;4.88;;;;;;;26.97;30.79;100692.44;5070683;28;20106;-54
2023/09/17 08:15:32;;;;;;;5.15;4.30;;;;;;;27.09;30.88;100695.88;5070083;28;20064;-52
2023/09/17 08:17:58;;;;;;;5.95;4.38;;;;;;;28.08;30.11;100667.28;5051787;28;20048;-55
2023/09/17 08:20:24;;;;;;;7.57;4.53;;;;;;;28.19;29.61;100688.59;5068564;28;20534;-55
2023/09/17 08:22:51;;;;;;;11.88;4.68;;;;;;;28.40;29.28;100696.47;5066179;28;20120;-57
2023/09/17 08:25:36;;;;;;;9.05;5.20;;;;;;;28.55;28.67;100654.03;5077155;28;20147;-60
2023/09/17 08:28:22;;;;;;;6.97;5.13;;;;;;;29.07;28.60;100676.72;5068110;28;20497;-48
2023/09/17 08:31:08;;;;;;;6.70;5.05;;;;;;;28.06;29.33;100674.59;5075910;28;20036;-55
2023/09/17 08:33:54;;;;;;;9.55;5.55;;;;;;;28.00;29.83;100672.47;5075302;28;20074;-50
2023/09/17 08:36:32;;;;;;;7.93;5.47;;;;;;;28.52;29.49;100673.06;5076394;28;20040;-56
2023/09/17 08:38:58;;;;;;;6.18;4.97;;;;;;;28.86;28.88;100657.38;5059203;28;20063;-53
2023/09/17 08:41:24;;;;;;;7.82;5.57;;;;;;;29.92;27.84;100675.59;5063634;28;20043;-49
2023/09/17 08:43:54;;;;;;;7.00;5.30;;;;;;;31.03;26.59;100665.09;5063251;28;20040;-54
2023/09/17 08:46:21;;;;;;;6.78;5.47;;;;;;;31.50;26.15;100666.28;5071447;28;20037;-52
2023/09/17 08:48:47;;;;;;;9.18;4.88;;;;;;;32.26;25.62;100671.50;5068976;28;20059;-52
2023/09/17 08:51:15;;;;;;;9.05;5.05;;;;;;;33.01;24.34;100666.69;5066220;28;20060;-46
2023/09/17 08:53:53;;;;;;;;;;;;;;;32.57;24.70;100660.00;5070881;28;20050;-49
2023/09/17 08:56:19;;;;;;;7.55;4.40;;;;;;;31.76;25.04;100658.16;5053311;28;20403;-52
2023/09/17 08:58:52;;;;;;;7.32;4.35;;;;;;;31.41;24.83;100624.22;5064381;28;20041;-56
2023/09/17 09:01:20;;;;;;;8.43;4.53;;;;;;;31.09;25.53;100637.59;5070743;28;20132;-57
2023/09/17 09:03:46;;;;;;;7.38;4.65;;;;;;;31.17;25.58;100636.75;5071751;28;20508;-58
2023/09/17 09:06:14;;;;;;;6.65;4.03;;;;;;;31.50;25.53;100639.41;5075822;28;20519;-57
2023/09/17 09:08:42;;;;;;;7.95;4.18;;;;;;;32.06;24.94;100635.13;5075093;28;20135;-58
2023/09/17 09:11:09;;;;;;;7.75;5.10;;;;;;;32.57;24.37;100631.22;5088275;28;20059;-55
2023/09/17 09:13:37;;;;;;;7.20;4.43;;;;;;;30.67;25.14;100629.44;5084083;28;20039;-58
2023/09/17 09:16:03;;;;;;;8.40;4.93;;;;;;;29.14;26.54;100623.41;5076259;28;20054;-56
2023/09/17 09:18:29;;;;;;;5.95;4.68;;;;;;;28.73;27.29;100622.06;5077534;28;20040;-59
2023/09/17 09:20:55;;;;;;;10.23;4.50;;;;;;;28.48;28.02;100618.13;5053828;28;20082;-55
2023/09/17 09:23:22;;;;;;;6.78;4.93;;;;;;;28.64;27.74;100615.69;5057276;28;20131;-57
2023/09/17 09:25:48;;;;;;;7.50;4.38;;;;;;;28.42;28.20;100611.53;5075392;28;20678;-56
2023/09/17 09:28:14;;;;;;;9.45;4.50;;;;;;;28.72;28.02;100597.13;5080224;28;20063;-53
2023/09/17 09:30:43;;;;;;;6.50;4.80;;;;;;;29.28;27.38;100601.47;5065037;28;20045;-58
2023/09/17 09:33:09;;;;;;;9.10;4.80;;;;;;;30.38;26.79;100600.19;5080330;28;20487;-58
2023/09/17 09:35:35;;;;;;;6.10;4.72;;;;;;;30.83;25.30;100589.22;5078376;28;20047;-57
2023/09/17 09:38:01;;;;;;;7.68;4.88;;;;;;;30.52;25.35;100604.16;5073207;28;20039;-57
2023/09/17 09:40:27;;;;;;;7.18;4.30;;;;;;;31.14;24.66;100608.38;5075656;28;20060;-58
2023/09/17 09:42:53;;;;;;;9.73;4.85;;;;;;;30.31;25.70;100591.06;5092393;28;20204;-57
2023/09/17 09:45:19;;;;;;;8.05;5.03;;;;;;;30.30;25.72;100590.22;5076537;28;20052;-58
2023/09/17 09:47:49;;;;;;;7.30;5.38;;;;;;;31.14;25.02;100595.75;5060425;28;20048;-55
2023/09/17 09:50:27;;;;;;;7.13;4.65;;;;;;;32.37;24.16;100594.94;5061025;28;20508;-55
2023/09/17 09:52:54;;;;;;;5.82;4.60;;;;;;;33.54;23.36;100603.94;5081346;28;20081;-59
2023/09/17 09:55:24;;;;;;;10.07;4.55;;;;;;;32.93;23.36;100595.78;5050002;28;20051;-57
2023/09/17 09:57:51;;;;;;;8.20;4.70;;;;;;;33.37;23.17;100602.34;5068465;28;20516;-58
2023/09/17 10:00:26;;;;;;;6.87;3.83;;;;;;;33.70;22.05;100597.63;5061890;28;20044;-57
2023/09/17 10:02:53;;;;;;;6.53;3.90;;;;;;;33.71;21.03;100598.47;5076669;28;20083;-56
2023/09/17 10:05:40;;;;;;;5.90;3.88;;;;;;;33.05;21.36;100595.25;5074971;28;20045;-60
2023/09/17 10:08:12;;;;;;;6.20;4.23;;;;;;;32.44;22.12;100587.84;5058001;28;20044;-55
2023/09/17 10:10:39;;;;;;;4.65;3.80;;;;;;;32.27;22.37;100586.19;5071430;28;20302;-58
2023/09/17 10:13:06;;;;;;;8.07;4.22;;;;;;;32.25;22.47;100578.28;5079332;28;20560;-56
2023/09/17 10:15:34;;;;;;;7.93;4.05;;;;;;;32.56;22.64;100566.75;5068685;28;20064;-54
2023/09/17 10:18:01;;;;;;;6.25;3.75;;;;;;;33.41;21.96;100578.56;5076512;28;20089;-58
2023/09/17 10:20:28;;;;;;;7.68;3.78;;;;;;;32.79;22.29;100567.75;5078475;28;20063;-59
2023/09/17 10:22:55;;;;;;;7.82;4.07;;;;;;;33.28;21.94;100560.28;5075038;28;20062;-57
2023/09/17 10:25:22;;;;;;;7.55;3.78;;;;;;;33.91;20.92;100554.63;5074295;28;20139;-56
2023/09/17 10:27:49;;;;;;;4.73;3.87;;;;;;;33.78;20.97;100551.69;5076046;28;20159;-59
2023/09/17 10:30:17;;;;;;;6.00;4.37;;;;;;;34.28;21.13;100563.75;5076785;28;20371;-57
2023/09/17 10:32:46;;;;;;;5.13;3.75;;;;;;;34.31;20.67;100575.00;5074410;28;20044;-59
2023/09/17 10:35:14;;;;;;;7.47;3.85;;;;;;;34.03;20.55;100568.50;5078240;28;20044;-58
2023/09/17 10:37:40;;;;;;;4.28;3.53;;;;;;;33.69;20.95;100560.88;5078077;28;20116;-56
2023/09/17 10:40:11;;;;;;;6.53;4.03;;;;;;;33.89;20.89;100559.34;5059509;28;20046;-58
2023/09/17 10:42:38;;;;;;;4.65;3.90;;;;;;;34.58;20.28;100553.78;5076681;28;20048;-58
2023/09/17 10:45:08;;;;;;;4.43;3.70;;;;;;;34.13;20.91;100560.13;5076521;28;20040;-59
2023/09/17 10:47:37;;;;;;;5.05;3.55;;;;;;;33.89;20.50;100547.72;5069357;28;20051;-58
2023/09/17 10:50:03;;;;;;;6.13;3.60;;;;;;;34.11;20.36;100536.03;5074125;28;20566;-57
2023/09/17 10:52:30;;;;;;;4.45;3.40;;;;;;;34.77;20.30;100547.81;5075575;28;20040;-58
2023/09/17 10:54:57;;;;;;;5.10;3.28;;;;;;;35.64;19.61;100544.03;5072499;28;20045;-58
2023/09/17 10:57:40;;;;;;;9.30;3.55;;;;;;;35.65;19.52;100539.47;5071517;28;20047;-60
2023/09/17 11:00:13;;;;;;;7.68;3.53;;;;;;;35.41;19.03;100518.22;5074702;28;20423;-57
2023/09/17 11:02:42;;;;;;;4.20;3.10;;;;;;;35.33;19.24;100532.69;5075475;28;20084;-57
2023/09/17 11:05:08;;;;;;;10.40;3.58;;;;;;;35.59;18.95;100526.75;5020362;28;20051;-57
2023/09/17 11:07:34;;;;;;;5.70;3.15;;;;;;;34.70;19.59;100517.19;5071991;28;20118;-57
2023/09/17 11:10:04;;;;;;;4.85;3.08;;;;;;;34.45;19.86;100514.75;5057619;28;20575;-55
2023/09/17 11:12:31;;;;;;;6.65;3.47;;;;;;;34.03;20.49;100507.25;5071054;28;20036;-54
2023/09/17 11:14:57;;;;;;;6.00;3.90;;;;;;;34.21;20.38;100504.22;5074269;28;20075;-57
2023/09/17 11:17:32;;;;;;;5.50;2.97;;;;;;;34.78;19.90;100485.50;5071530;28;20064;-58
2023/09/17 11:19:59;;;;;;;7.93;3.17;;;;;;;34.57;19.73;100509.72;5069424;28;20484;-56
2023/09/17 11:22:29;;;;;;;3.42;3.00;;;;;;;33.40;20.45;100502.22;5079571;28;20060;-57
2023/09/17 11:24:55;;;;;;;6.15;2.92;;;;;;;32.23;21.39;100491.50;5081198;28;20126;-58
2023/09/17 11:27:21;;;;;;;5.63;2.65;;;;;;;32.34;21.65;100495.69;5076562;28;20131;-57